createdAt,value
2022-11-05T00:02:06.528Z,100905.63
2022-11-05T00:04:52.611Z,100911.56
2022-11-05T00:07:47.630Z,100902.94
2022-11-05T00:10:22.066Z,100900.31
2022-11-05T00:13:12.105Z,100910.59
2022-11-05T00:15:58.845Z,100907.09
2022-11-05T00:18:26.997Z,100896.72
2022-11-05T00:20:54.931Z,100901.00
2022-11-05T00:23:42.666Z,100902.63
2022-11-05T00:26:12.725Z,100853.63
2022-11-05T00:28:44.431Z,100890.59
2022-11-05T00:31:14.799Z,100909.44
2022-11-05T00:33:43.988Z,100906.75
2022-11-05T00:36:12.122Z,100898.16
2022-11-05T00:38:41.650Z,100895.50
2022-11-05T00:41:09.579Z,100891.16
2022-11-05T00:43:57.376Z,100884.31
2022-11-05T00:46:25.325Z,100875.78
2022-11-05T00:49:11.956Z,100881.81
2022-11-05T00:51:39.869Z,100879.28
2022-11-05T00:54:07.864Z,100878.47
2022-11-05T00:56:35.980Z,100873.34
2022-11-05T00:59:03.910Z,100863.84
2022-11-05T01:01:32.028Z,100866.44
2022-11-05T01:04:00.280Z,100863.00
2022-11-05T01:06:28.209Z,100858.72
2022-11-05T01:08:56.885Z,100863.81
2022-11-05T01:11:36.194Z,100860.41
2022-11-05T01:14:06.034Z,100856.94
2022-11-05T01:16:33.926Z,100849.16
2022-11-05T01:19:02.922Z,100844.09
2022-11-05T01:21:30.864Z,100863.84
2022-11-05T01:23:58.792Z,100852.72
2022-11-05T01:26:29.429Z,100859.50
2022-11-05T01:29:02.741Z,100836.38
2022-11-05T01:31:32.735Z,100838.91
2022-11-05T01:34:02.463Z,100838.03
2022-11-05T01:36:30.083Z,100840.56
2022-11-05T01:38:58.191Z,100844.81
2022-11-05T01:41:26.331Z,100840.47
2022-11-05T01:43:57.553Z,100840.41
2022-11-05T01:46:37.404Z,100840.38
2022-11-05T01:49:12.875Z,100823.19
2022-11-05T01:51:42.160Z,100817.06
2022-11-05T01:54:15.246Z,100805.88
2022-11-05T01:57:01.006Z,100805.78
2022-11-05T01:59:40.655Z,100797.13
2022-11-05T02:02:08.738Z,100784.13
2022-11-05T02:04:54.849Z,100793.50
2022-11-05T02:07:26.635Z,100795.97
2022-11-05T02:10:08.414Z,100776.97
2022-11-05T02:12:40.258Z,100777.66
2022-11-05T02:15:14.380Z,100783.50
2022-11-05T02:18:12.641Z,100779.84
2022-11-05T02:21:11.197Z,100789.00
2022-11-05T02:23:57.843Z,100787.78
2022-11-05T02:26:54.028Z,100772.66
2022-11-05T02:29:25.012Z,100762.72
2022-11-05T02:32:02.369Z,100763.09
2022-11-05T02:34:30.282Z,100730.66
2022-11-05T02:37:20.501Z,100753.59
2022-11-05T02:40:06.158Z,100764.31
2022-11-05T02:43:00.451Z,100770.75
2022-11-05T02:45:31.320Z,100751.38
2022-11-05T02:48:19.580Z,100744.09
2022-11-05T02:51:09.352Z,100743.81
2022-11-05T02:53:49.517Z,100743.50
2022-11-05T02:56:36.149Z,100741.47
2022-11-05T02:59:23.468Z,100725.66
2022-11-05T03:01:53.920Z,100720.28
2022-11-05T03:04:24.619Z,100729.41
2022-11-05T03:07:16.722Z,100716.75
2022-11-05T03:10:03.766Z,100724.84
2022-11-05T03:13:03.924Z,100717.56
2022-11-05T03:15:57.424Z,100704.19
2022-11-05T03:18:48.664Z,100708.44
2022-11-05T03:21:25.744Z,100704.53
2022-11-05T03:24:20.443Z,100696.38
2022-11-05T03:26:53.383Z,100690.13
2022-11-05T03:29:29.319Z,100685.78
2022-11-05T03:32:05.624Z,100687.25
2022-11-05T03:34:40.710Z,100684.44
2022-11-05T03:37:10.527Z,100677.38
2022-11-05T03:39:53.360Z,100676.41
2022-11-05T03:42:26.485Z,100682.13
2022-11-05T03:44:58.419Z,100678.56
2022-11-05T03:47:36.306Z,100676.59
2022-11-05T03:50:14.425Z,100679.91
2022-11-05T03:52:55.616Z,100673.72
2022-11-05T03:55:29.321Z,100660.66
2022-11-05T03:58:00.268Z,100659.44
2022-11-05T04:00:28.328Z,100663.31
2022-11-05T04:02:56.608Z,100654.19
2022-11-05T04:05:24.803Z,100652.59
2022-11-05T04:08:14.314Z,100646.66
2022-11-05T04:11:06.175Z,100655.44
2022-11-05T04:13:34.807Z,100653.16
2022-11-05T04:16:40.735Z,100648.50
2022-11-05T04:19:08.655Z,100646.19
2022-11-05T04:21:55.085Z,100644.03
2022-11-05T04:24:23.119Z,100648.16
2022-11-05T04:26:51.194Z,100645.63
2022-11-05T04:29:37.213Z,100647.03
2022-11-05T04:32:05.683Z,100637.56
2022-11-05T04:34:33.647Z,100640.16
2022-11-05T04:37:01.596Z,100628.94
2022-11-05T04:39:29.618Z,100630.72
2022-11-05T04:41:59.692Z,100618.56
2022-11-05T04:44:27.622Z,100599.56
2022-11-05T04:46:55.548Z,100605.34
2022-11-05T04:49:23.493Z,100605.03
2022-11-05T04:51:51.588Z,100598.59
2022-11-05T04:54:19.672Z,100590.66
2022-11-05T04:56:47.648Z,100602.53
2022-11-05T04:59:15.573Z,100585.97
2022-11-05T05:01:43.736Z,100590.22
2022-11-05T05:04:11.681Z,100587.38
2022-11-05T05:06:39.683Z,100592.56
2022-11-05T05:09:07.619Z,100589.81
2022-11-05T05:11:35.746Z,100571.66
2022-11-05T05:14:03.782Z,100565.53
2022-11-05T05:16:33.028Z,100550.22
2022-11-05T05:19:00.979Z,100551.47
2022-11-05T05:21:41.853Z,100552.97
2022-11-05T05:24:12.106Z,100548.53
2022-11-05T05:26:43.472Z,100539.91
2022-11-05T05:29:12.585Z,100523.50
2022-11-05T05:31:42.633Z,100522.66
2022-11-05T05:34:15.342Z,100521.16
2022-11-05T05:36:43.308Z,100520.97
2022-11-05T05:39:13.970Z,100513.09
2022-11-05T05:41:42.115Z,100520.81
2022-11-05T05:44:10.146Z,100514.63
2022-11-05T05:46:38.166Z,100513.53
2022-11-05T05:49:11.256Z,100502.97
2022-11-05T05:51:43.557Z,100489.06
2022-11-05T05:54:12.583Z,100476.09
2022-11-05T05:56:40.542Z,100469.88
2022-11-05T05:59:08.697Z,100453.66
2022-11-05T06:01:37.427Z,100463.59
2022-11-05T06:04:05.721Z,100457.91
2022-11-05T06:06:33.689Z,100465.94
2022-11-05T06:09:01.735Z,100449.41
2022-11-05T06:11:29.907Z,100467.50
2022-11-05T06:13:58.503Z,100473.53
2022-11-05T06:16:26.440Z,100467.50
2022-11-05T06:18:54.333Z,100471.78
2022-11-05T06:21:22.540Z,100454.53
2022-11-05T06:23:50.726Z,100451.19
2022-11-05T06:26:19.512Z,100447.75
2022-11-05T06:28:50.189Z,100442.56
2022-11-05T06:31:18.247Z,100442.47
2022-11-05T06:33:47.799Z,100451.09
2022-11-05T06:36:17.736Z,100450.16
2022-11-05T06:38:46.177Z,100447.47
2022-11-05T06:41:14.332Z,100454.25
2022-11-05T06:43:44.840Z,100450.16
2022-11-05T06:46:12.908Z,100458.34
2022-11-05T06:48:41.501Z,100458.16
2022-11-05T06:51:10.584Z,100452.03
2022-11-05T06:53:38.596Z,100432.84
2022-11-05T06:56:08.229Z,100411.13
2022-11-05T06:58:37.363Z,100418.84
2022-11-05T07:01:10.881Z,100401.50
2022-11-05T07:03:40.266Z,100419.59
2022-11-05T07:06:09.634Z,100419.50
2022-11-05T07:08:38.844Z,100414.94
2022-11-05T07:11:07.433Z,100410.41
2022-11-05T07:13:38.186Z,100414.63
2022-11-05T07:16:06.380Z,100417.03
2022-11-05T07:18:34.343Z,100401.25
2022-11-05T07:21:02.673Z,100395.88
2022-11-05T07:23:30.730Z,100365.72
2022-11-05T07:26:00.919Z,100392.16
2022-11-05T07:28:29.136Z,100401.63
2022-11-05T07:30:59.778Z,100408.50
2022-11-05T07:33:30.123Z,100417.88
2022-11-05T07:36:02.097Z,100420.28
2022-11-05T07:38:30.133Z,100418.41
2022-11-05T07:41:01.073Z,100414.06
2022-11-05T07:43:29.207Z,100430.28
2022-11-05T07:45:57.232Z,100435.50
2022-11-05T07:48:25.166Z,100425.56
2022-11-05T07:50:56.500Z,100432.91
2022-11-05T07:53:24.590Z,100386.78
2022-11-05T07:55:53.184Z,100415.63
2022-11-05T07:58:21.351Z,100423.34
2022-11-05T08:00:49.435Z,100417.22
2022-11-05T08:03:20.019Z,100407.66
2022-11-05T08:05:50.666Z,100408.47
2022-11-05T08:08:20.387Z,100415.53
2022-11-05T08:10:48.441Z,100409.03
2022-11-05T08:13:16.821Z,100409.03
2022-11-05T08:15:45.462Z,100430.38
2022-11-05T08:18:18.486Z,100424.34
2022-11-05T08:20:48.213Z,100439.13
2022-11-05T08:23:16.300Z,100440.78
2022-11-05T08:25:44.292Z,100438.28
2022-11-05T08:28:15.824Z,100422.41
2022-11-05T08:30:44.229Z,100435.22
2022-11-05T08:33:15.301Z,100430.84
2022-11-05T08:35:44.077Z,100425.47
2022-11-05T08:38:16.997Z,100437.53
2022-11-05T08:40:46.987Z,100440.03
2022-11-05T08:43:18.356Z,100456.47
2022-11-05T08:45:47.153Z,100445.25
2022-11-05T08:48:16.983Z,100442.38
2022-11-05T08:50:48.125Z,100460.28
2022-11-05T08:53:16.552Z,100462.97
2022-11-05T08:55:44.828Z,100457.88
2022-11-05T08:58:18.452Z,100463.16
2022-11-05T09:00:49.663Z,100469.28
2022-11-05T09:03:18.741Z,100473.75
2022-11-05T09:05:49.717Z,100475.50
2022-11-05T09:08:20.066Z,100468.72
2022-11-05T09:10:48.663Z,100467.16
2022-11-05T09:13:19.884Z,100467.44
2022-11-05T09:15:51.894Z,100466.69
2022-11-05T09:18:21.021Z,100466.88
2022-11-05T09:20:50.435Z,100486.91
2022-11-05T09:23:19.045Z,100481.06
2022-11-05T09:25:47.367Z,100492.66
2022-11-05T09:28:25.266Z,100497.25
2022-11-05T09:30:54.012Z,100492.41
2022-11-05T09:33:25.117Z,100496.28
2022-11-05T09:35:55.189Z,100495.81
2022-11-05T09:38:23.140Z,100484.00
2022-11-05T09:41:09.462Z,100491.31
2022-11-05T09:43:51.652Z,100497.63
2022-11-05T09:49:40.379Z,100502.53
2022-11-05T09:52:19.476Z,100514.03
2022-11-05T09:54:51.710Z,100503.16
2022-11-05T09:57:48.800Z,100507.69
2022-11-05T10:00:18.180Z,100515.63
2022-11-05T10:02:59.863Z,100520.25
2022-11-05T10:05:32.313Z,100528.19
2022-11-05T10:08:06.438Z,100526.69
2022-11-05T10:10:47.650Z,100528.63
2022-11-05T10:13:40.914Z,100526.94
2022-11-05T10:16:18.183Z,100528.78
2022-11-05T10:18:53.374Z,100527.19
2022-11-05T10:21:44.348Z,100525.59
2022-11-05T10:24:18.531Z,100535.22
2022-11-05T10:26:53.665Z,100550.88
2022-11-05T10:29:30.964Z,100544.09
2022-11-05T10:32:01.141Z,100534.09
2022-11-05T10:34:34.964Z,100531.75
2022-11-05T10:37:03.181Z,100561.59
2022-11-05T10:39:33.377Z,100554.84
2022-11-05T10:42:10.230Z,100550.50
2022-11-05T10:45:02.967Z,100557.59
2022-11-05T10:47:54.846Z,100552.59
2022-11-05T10:50:27.424Z,100548.31
2022-11-05T10:53:07.454Z,100557.84
2022-11-05T10:55:48.826Z,100550.31
2022-11-05T10:58:16.922Z,100557.25
2022-11-05T11:01:00.796Z,100559.25
2022-11-05T11:03:47.032Z,100554.75
2022-11-05T11:06:35.103Z,100570.53
2022-11-05T11:09:07.954Z,100574.91
2022-11-05T11:11:42.028Z,100580.09
2022-11-05T11:14:14.714Z,100579.31
2022-11-05T11:16:48.221Z,100592.28
2022-11-05T11:19:25.230Z,100588.03
2022-11-05T11:22:05.577Z,100596.72
2022-11-05T11:24:42.760Z,100566.88
2022-11-05T11:27:15.765Z,100610.59
2022-11-05T11:29:49.377Z,100611.44
2022-11-05T11:32:22.517Z,100620.97
2022-11-05T11:34:55.318Z,100629.59
2022-11-05T11:37:34.981Z,100628.66
2022-11-05T11:40:05.526Z,100632.94
2022-11-05T11:42:41.572Z,100635.63
2022-11-05T11:45:18.857Z,100631.34
2022-11-05T11:47:51.279Z,100637.44
2022-11-05T11:50:44.270Z,100646.13
2022-11-05T11:53:21.538Z,100648.72
2022-11-05T11:56:03.690Z,100653.16
2022-11-05T11:58:41.007Z,100660.19
2022-11-05T12:01:19.886Z,100657.66
2022-11-05T12:03:58.616Z,100665.44
2022-11-05T12:06:31.724Z,100664.59
2022-11-05T12:09:32.374Z,100676.81
2022-11-05T12:12:14.376Z,100676.81
2022-11-05T12:14:55.978Z,100677.72
2022-11-05T12:18:04.688Z,100696.69
2022-11-05T12:21:06.539Z,100691.13
2022-11-05T12:23:50.076Z,100702.34
2022-11-05T12:26:29.948Z,100710.34
2022-11-05T12:29:35.415Z,100717.47
2022-11-05T12:32:18.570Z,100720.44
2022-11-05T12:35:16.879Z,100726.75
2022-11-05T12:38:04.248Z,100730.31
2022-11-05T12:41:01.622Z,100730.63
2022-11-05T12:44:07.788Z,100737.84
2022-11-05T12:46:47.945Z,100744.91
2022-11-05T12:49:42.569Z,100741.69
2022-11-05T12:52:52.435Z,100742.06
2022-11-05T12:55:24.913Z,100750.78
2022-11-05T12:57:58.041Z,100755.31
2022-11-05T13:00:31.583Z,100755.53
2022-11-05T13:03:20.883Z,100760.09
2022-11-05T13:05:49.055Z,100761.13
2022-11-05T13:08:43.918Z,100768.25
2022-11-05T13:11:43.135Z,100765.13
2022-11-05T13:14:39.590Z,100758.53
2022-11-05T13:17:15.782Z,100762.94
2022-11-05T13:20:02.268Z,100769.16
2022-11-05T13:22:41.803Z,100759.91
2022-11-05T13:25:31.436Z,100766.06
2022-11-05T13:28:11.244Z,100767.78
2022-11-05T13:30:43.337Z,100767.84
2022-11-05T13:33:21.643Z,100766.28
2022-11-05T13:36:22.444Z,100776.72
2022-11-05T13:39:01.746Z,100775.03
2022-11-05T13:41:40.860Z,100781.94
2022-11-05T13:44:41.774Z,100762.50
2022-11-05T13:47:22.184Z,100773.41
2022-11-05T13:50:19.483Z,100778.59
2022-11-05T13:53:16.079Z,100770.00
2022-11-05T13:56:21.543Z,100769.41
2022-11-05T13:59:31.781Z,100767.03
2022-11-05T14:02:04.234Z,100765.53
2022-11-05T14:04:41.896Z,100769.16
2022-11-05T14:07:23.649Z,100773.75
2022-11-05T14:10:12.437Z,100772.19
2022-11-05T14:12:42.795Z,100776.66
2022-11-05T14:15:19.794Z,100775.69
2022-11-05T14:18:03.933Z,100781.81
2022-11-05T14:20:32.051Z,100773.28
2022-11-05T14:23:26.196Z,100781.22
2022-11-05T14:25:58.670Z,100784.75
2022-11-05T14:28:37.099Z,100785.78
2022-11-05T14:32:07.890Z,100787.59
2022-11-05T14:35:04.864Z,100794.09
2022-11-05T14:37:51.269Z,100784.84
2022-11-05T14:40:32.669Z,100809.25
2022-11-05T14:43:08.194Z,100803.50
2022-11-05T14:45:56.461Z,100810.66
2022-11-05T14:48:52.079Z,100813.28
2022-11-05T14:51:37.293Z,100809.09
2022-11-05T14:54:31.508Z,100824.59
2022-11-05T14:57:03.296Z,100820.13
2022-11-05T14:59:34.041Z,100823.44
2022-11-05T15:02:04.108Z,100824.22
2022-11-05T15:04:41.335Z,100825.78
2022-11-05T15:07:09.374Z,100817.91
2022-11-05T15:10:10.016Z,100816.91
2022-11-05T15:12:52.178Z,100820.19
2022-11-05T15:15:25.005Z,100815.81
2022-11-05T15:17:58.913Z,100814.84
2022-11-05T15:20:40.374Z,100811.34
2022-11-05T15:23:14.063Z,100818.28
2022-11-05T15:26:08.684Z,100819.13
2022-11-05T15:28:47.047Z,100780.44
2022-11-05T15:31:16.575Z,100819.00
2022-11-05T15:33:50.232Z,100820.66
2022-11-05T15:36:30.076Z,100825.78
2022-11-05T15:39:27.953Z,100821.50
2022-11-05T15:41:49.567Z,100813.16
2022-11-05T15:44:27.805Z,100823.13
2022-11-05T15:47:19.616Z,100813.69
2022-11-05T15:49:54.794Z,100822.34
2022-11-05T15:52:26.253Z,100824.16
2022-11-05T15:55:13.825Z,100821.63
2022-11-05T15:57:50.896Z,100814.00
2022-11-05T16:00:28.824Z,100817.56
2022-11-05T16:03:07.437Z,100809.81
2022-11-05T16:05:42.860Z,100811.72
2022-11-05T16:08:22.512Z,100817.72
2022-11-05T16:10:52.405Z,100812.63
2022-11-05T16:13:29.639Z,100816.16
2022-11-05T16:16:01.916Z,100815.44
2022-11-05T16:18:36.810Z,100818.94
2022-11-05T16:21:18.563Z,100820.75
2022-11-05T16:24:00.824Z,100819.00
2022-11-05T16:27:02.687Z,100811.50
2022-11-05T16:29:38.486Z,100784.66
2022-11-05T16:32:39.021Z,100819.91
2022-11-05T16:35:18.634Z,100820.81
2022-11-05T16:37:51.667Z,100823.31
2022-11-05T16:40:43.571Z,100819.06
2022-11-05T16:43:26.688Z,100825.97
2022-11-05T16:45:57.484Z,100820.03
2022-11-05T16:48:26.027Z,100824.22
2022-11-05T16:50:55.655Z,100817.63
2022-11-05T16:53:23.462Z,100818.28
2022-11-05T16:55:51.552Z,100826.94
2022-11-05T16:58:27.264Z,100823.56
2022-11-05T17:01:08.496Z,100814.91
2022-11-05T17:03:36.662Z,100771.97
2022-11-05T17:06:04.657Z,100785.44
2022-11-05T17:08:32.732Z,100799.72
2022-11-05T17:11:01.073Z,100821.75
2022-11-05T17:13:29.209Z,100825.25
2022-11-05T17:15:57.281Z,100803.22
2022-11-05T17:18:26.628Z,100810.72
2022-11-05T17:20:57.803Z,100810.72
2022-11-05T17:23:30.481Z,100819.28
2022-11-05T17:26:03.681Z,100825.38
2022-11-05T17:28:33.556Z,100815.94
2022-11-05T17:31:03.319Z,100821.94
2022-11-05T17:33:32.634Z,100810.75
2022-11-05T17:36:01.539Z,100824.53
2022-11-05T17:38:29.879Z,100813.28
2022-11-05T17:40:59.732Z,100824.53
2022-11-05T17:43:27.723Z,100812.44
2022-11-05T17:45:59.999Z,100811.53
2022-11-05T17:48:31.474Z,100802.19
2022-11-05T17:50:59.389Z,100813.28
2022-11-05T17:53:27.329Z,100802.19
2022-11-05T17:55:55.635Z,100796.25
2022-11-05T17:58:23.644Z,100814.06
2022-11-05T18:00:51.723Z,100790.31
2022-11-05T18:03:19.738Z,100813.16
2022-11-05T18:05:47.894Z,100805.41
2022-11-05T18:08:15.849Z,100811.50
2022-11-05T18:10:43.897Z,100803.84
2022-11-05T18:13:12.465Z,100795.16
2022-11-05T18:15:41.711Z,100810.72
2022-11-05T18:18:10.048Z,100795.47
2022-11-05T18:20:39.041Z,100797.84
2022-11-05T18:23:07.131Z,100806.50
2022-11-05T18:25:35.111Z,100798.78
2022-11-05T18:28:04.334Z,100802.25
2022-11-05T18:30:32.363Z,100790.59
2022-11-05T18:33:00.372Z,100800.56
2022-11-05T18:35:29.667Z,100805.69
2022-11-05T18:37:57.805Z,100787.59
2022-11-05T18:40:25.854Z,100795.31
2022-11-05T18:42:53.910Z,100790.88
2022-11-05T18:45:26.896Z,100792.63
2022-11-05T18:47:57.696Z,100796.03
2022-11-05T18:50:27.458Z,100786.69
2022-11-05T18:52:55.577Z,100790.09
2022-11-05T18:55:24.424Z,100785.78
2022-11-05T18:57:53.525Z,100781.50
2022-11-05T19:00:22.611Z,100788.41
2022-11-05T19:02:51.980Z,100785.78
2022-11-05T19:05:29.749Z,100767.25
2022-11-05T19:07:58.303Z,100770.28
2022-11-05T19:10:27.245Z,100772.06
2022-11-05T19:12:55.387Z,100780.66
2022-11-05T19:15:23.333Z,100775.44
2022-11-05T19:17:52.248Z,100750.25
2022-11-05T19:20:20.276Z,100770.28
2022-11-05T19:22:48.313Z,100772.94
2022-11-05T19:25:16.409Z,100772.09
2022-11-05T19:27:44.639Z,100776.38
2022-11-05T19:30:13.375Z,100770.34
2022-11-05T19:32:41.665Z,100761.88
2022-11-05T19:35:09.924Z,100774.53
2022-11-05T19:37:37.832Z,100759.88
2022-11-05T19:40:07.246Z,100769.38
2022-11-05T19:42:35.319Z,100761.63
2022-11-05T19:45:23.191Z,100763.44
2022-11-05T19:47:52.954Z,100760.78
2022-11-05T19:50:20.586Z,100749.59
2022-11-05T19:52:48.560Z,100741.84
2022-11-05T19:55:16.791Z,100751.44
2022-11-05T19:57:45.498Z,100747.16
2022-11-05T20:00:14.144Z,100747.16
2022-11-05T20:02:50.101Z,100736.00
2022-11-05T20:05:18.895Z,100722.56
2022-11-05T20:07:52.316Z,100744.66
2022-11-05T20:10:21.295Z,100730.13
2022-11-05T20:12:49.303Z,100719.19
2022-11-05T20:15:19.645Z,100730.13
2022-11-05T20:17:52.743Z,100727.53
2022-11-05T20:20:21.376Z,100727.72
2022-11-05T20:22:49.356Z,100725.19
2022-11-05T20:25:19.317Z,100719.31
2022-11-05T20:27:47.263Z,100725.44
2022-11-05T20:30:15.249Z,100719.50
2022-11-05T20:32:43.542Z,100723.22
2022-11-05T20:35:11.883Z,100726.81
2022-11-05T20:37:39.921Z,100722.66
2022-11-05T20:40:09.337Z,100719.38
2022-11-05T20:42:37.599Z,100716.97
2022-11-05T20:45:05.964Z,100707.66
2022-11-05T20:47:34.787Z,100713.81
2022-11-05T20:50:04.673Z,100705.41
2022-11-05T20:52:32.702Z,100702.94
2022-11-05T20:55:03.667Z,100660.34
2022-11-05T20:57:31.669Z,100699.88
2022-11-05T20:59:59.626Z,100710.25
2022-11-05T21:02:28.681Z,100710.34
2022-11-05T21:04:56.909Z,100669.16
2022-11-05T21:07:25.027Z,100703.75
2022-11-05T21:09:53.904Z,100704.75
2022-11-05T21:12:22.363Z,100675.09
2022-11-05T21:14:51.745Z,100691.53
2022-11-05T21:17:20.048Z,100700.88
2022-11-05T21:19:48.083Z,100700.22
2022-11-05T21:22:16.136Z,100693.56
2022-11-05T21:24:46.361Z,100691.22
2022-11-05T21:27:14.292Z,100695.59
2022-11-05T21:29:42.212Z,100688.75
2022-11-05T21:32:11.478Z,100694.78
2022-11-05T21:34:39.433Z,100686.31
2022-11-05T21:37:07.624Z,100686.38
2022-11-05T21:39:35.747Z,100684.75
2022-11-05T21:42:03.918Z,100680.56
2022-11-05T21:44:31.871Z,100680.66
2022-11-05T21:47:00.114Z,100682.50
2022-11-05T21:49:28.211Z,100683.63
2022-11-05T21:52:14.580Z,100679.53
2022-11-05T21:55:00.952Z,100681.31
2022-11-05T21:57:49.472Z,100689.97
2022-11-05T22:00:17.648Z,100677.19
2022-11-05T22:02:45.813Z,100677.19
2022-11-05T22:05:15.305Z,100661.97
2022-11-05T22:07:43.410Z,100676.34
2022-11-05T22:10:16.103Z,100678.91
2022-11-05T22:12:46.411Z,100669.50
2022-11-05T22:15:14.486Z,100672.06
2022-11-05T22:17:46.930Z,100663.66
2022-11-05T22:20:17.711Z,100664.66
2022-11-05T22:22:45.869Z,100664.72
2022-11-05T22:25:14.950Z,100663.94
2022-11-05T22:27:44.784Z,100660.56
2022-11-05T22:30:14.091Z,100652.00
2022-11-05T22:32:42.265Z,100641.75
2022-11-05T22:35:10.668Z,100646.00
2022-11-05T22:37:38.625Z,100646.94
2022-11-05T22:40:07.149Z,100641.84
2022-11-05T22:42:36.138Z,100637.66
2022-11-05T22:45:04.402Z,100637.66
2022-11-05T22:47:32.439Z,100636.00
2022-11-05T22:50:02.726Z,100642.00
2022-11-05T22:52:31.481Z,100630.06
2022-11-05T22:54:59.560Z,100615.53
2022-11-05T22:57:27.562Z,100624.97
2022-11-05T22:59:55.514Z,100622.41
2022-11-05T23:02:23.694Z,100598.06
2022-11-05T23:04:55.567Z,100607.06
2022-11-05T23:07:41.791Z,100607.00
2022-11-05T23:10:29.588Z,100597.53
2022-11-05T23:12:57.643Z,100597.53
2022-11-05T23:15:45.991Z,100604.47
2022-11-05T23:18:32.070Z,100597.66
2022-11-05T23:21:22.892Z,100606.22
2022-11-05T23:24:06.372Z,100601.06
2022-11-05T23:26:52.047Z,100582.16
2022-11-05T23:29:23.624Z,100597.59
2022-11-05T23:32:10.654Z,100595.91
2022-11-05T23:34:39.024Z,100583.88
2022-11-05T23:37:27.288Z,100586.47
2022-11-05T23:39:55.435Z,100567.81
2022-11-05T23:42:42.175Z,100578.69
2022-11-05T23:45:28.843Z,100576.88
2022-11-05T23:48:16.788Z,100576.84
2022-11-05T23:50:58.138Z,100565.59
2022-11-05T23:53:28.211Z,100572.47
2022-11-05T23:56:05.050Z,100564.69
2022-11-05T23:58:34.107Z,100570.69
